createdAt,value
2023-04-28T00:00:22.257Z,2.50
2023-04-28T00:02:49.226Z,2.50
2023-04-28T00:05:16.103Z,2.30
2023-04-28T00:07:43.001Z,2.65
2023-04-28T00:10:10.900Z,2.47
2023-04-28T00:12:37.523Z,3.03
2023-04-28T00:15:04.763Z,2.05
2023-04-28T00:17:31.380Z,2.55
2023-04-28T00:19:58.105Z,2.55
2023-04-28T00:22:24.801Z,2.58
2023-04-28T00:24:51.684Z,2.83
2023-04-28T00:27:18.234Z,2.75
2023-04-28T00:30:04.080Z,2.30
2023-04-28T00:32:30.743Z,2.80
2023-04-28T00:34:57.807Z,2.72
2023-04-28T00:37:26.702Z,2.50
2023-04-28T00:39:56.753Z,2.97
2023-04-28T00:42:24.832Z,2.55
2023-04-28T00:44:51.511Z,2.25
2023-04-28T00:47:19.468Z,2.95
2023-04-28T00:49:49.599Z,2.47
2023-04-28T00:52:16.430Z,2.70
2023-04-28T00:54:43.117Z,2.42
2023-04-28T00:57:10.726Z,2.47
2023-04-28T00:59:37.368Z,2.40
2023-04-28T01:02:04.824Z,2.40
2023-04-28T01:04:32.032Z,2.50
2023-04-28T01:07:02.395Z,2.70
2023-04-28T01:09:29.084Z,2.28
2023-04-28T01:11:56.338Z,2.50
2023-04-28T01:14:23.110Z,2.75
2023-04-28T01:16:49.732Z,2.53
2023-04-28T01:19:25.472Z,2.85
2023-04-28T01:21:52.568Z,2.90
2023-04-28T01:24:37.987Z,2.72
2023-04-28T01:27:04.524Z,2.53
2023-04-28T01:29:31.048Z,2.30
2023-04-28T01:31:57.771Z,3.38
2023-04-28T01:34:24.574Z,2.50
2023-04-28T01:36:51.203Z,2.63
2023-04-28T01:39:17.989Z,2.67
2023-04-28T01:41:44.793Z,2.78
2023-04-28T01:44:13.043Z,2.70
2023-04-28T01:46:39.641Z,2.95
2023-04-28T01:49:06.249Z,2.85
2023-04-28T01:51:32.977Z,2.45
2023-04-28T01:54:18.862Z,2.40
2023-04-28T01:56:45.615Z,2.60
2023-04-28T01:59:14.186Z,2.60
2023-04-28T02:01:40.965Z,2.33
2023-04-28T02:04:07.773Z,2.35
2023-04-28T02:06:34.646Z,2.65
2023-04-28T02:09:01.224Z,2.90
2023-04-28T02:11:27.845Z,2.75
2023-04-28T02:13:54.379Z,2.92
2023-04-28T02:16:21.590Z,2.67
2023-04-28T02:18:48.178Z,2.80
2023-04-28T02:21:16.501Z,2.67
2023-04-28T02:23:43.074Z,2.53
2023-04-28T02:26:09.749Z,2.90
2023-04-28T02:28:36.357Z,2.92
2023-04-28T02:31:12.046Z,2.72
2023-04-28T02:33:38.849Z,2.78
2023-04-28T02:36:24.150Z,2.88
2023-04-28T02:38:50.738Z,3.15
2023-04-28T02:41:17.302Z,2.60
2023-04-28T02:43:43.879Z,2.95
2023-04-28T02:46:11.378Z,2.80
2023-04-28T02:48:37.984Z,2.67
2023-04-28T02:51:04.639Z,2.63
2023-04-28T02:53:31.270Z,2.85
2023-04-28T02:55:59.647Z,2.80
2023-04-28T02:58:26.783Z,3.33
2023-04-28T03:00:56.409Z,3.05
2023-04-28T03:03:23.209Z,2.72
2023-04-28T03:06:08.503Z,2.83
2023-04-28T03:08:35.042Z,2.72
2023-04-28T03:11:02.458Z,3.35
2023-04-28T03:13:30.100Z,3.10
2023-04-28T03:15:56.737Z,2.70
2023-04-28T03:18:23.453Z,2.50
2023-04-28T03:20:51.115Z,2.97
2023-04-28T03:23:17.722Z,3.25
2023-04-28T03:25:44.709Z,3.10
2023-04-28T03:28:11.765Z,2.92
2023-04-28T03:30:39.165Z,2.90
2023-04-28T03:33:05.823Z,2.85
2023-04-28T03:35:35.875Z,2.75
2023-04-28T03:38:02.418Z,2.60
2023-04-28T03:40:28.946Z,3.00
2023-04-28T03:43:14.094Z,2.88
2023-04-28T03:45:41.447Z,2.65
2023-04-28T03:48:10.289Z,2.72
2023-04-28T03:50:36.908Z,2.83
2023-04-28T03:53:22.147Z,2.78
2023-04-28T03:55:48.783Z,2.35
2023-04-28T03:58:15.493Z,2.25
2023-04-28T04:00:41.982Z,2.72
2023-04-28T04:03:09.430Z,2.85
2023-04-28T04:05:36.284Z,2.70
2023-04-28T04:08:03.174Z,3.13
2023-04-28T04:10:30.500Z,2.70
2023-04-28T04:12:57.004Z,2.63
2023-04-28T04:15:24.644Z,2.63
2023-04-28T04:17:51.251Z,2.97
2023-04-28T04:20:19.840Z,3.20
2023-04-28T04:22:46.448Z,2.85
2023-04-28T04:25:13.149Z,2.88
2023-04-28T04:27:39.710Z,2.70
2023-04-28T04:30:08.396Z,2.70
2023-04-28T04:32:35.036Z,2.90
2023-04-28T04:35:01.866Z,2.80
2023-04-28T04:37:29.116Z,2.47
2023-04-28T04:39:55.729Z,2.80
2023-04-28T04:42:26.036Z,2.65
2023-04-28T04:44:52.713Z,2.65
2023-04-28T04:47:19.734Z,3.00
2023-04-28T04:49:46.350Z,2.90
2023-04-28T04:52:15.301Z,2.92
2023-04-28T04:54:41.879Z,2.90
2023-04-28T04:57:08.478Z,2.92
2023-04-28T04:59:36.362Z,3.13
2023-04-28T05:02:03.152Z,2.83
2023-04-28T05:04:30.103Z,2.92
2023-04-28T05:06:56.755Z,2.90
2023-04-28T05:09:24.617Z,3.00
2023-04-28T05:11:51.251Z,2.75
2023-04-28T05:17:58.940Z,2.90
2023-04-28T05:20:25.658Z,2.67
2023-04-28T05:22:52.242Z,3.00
2023-04-28T05:25:18.833Z,2.90
2023-04-28T05:27:45.424Z,3.20
2023-04-28T05:30:12.203Z,2.65
2023-04-28T05:32:39.262Z,2.90
2023-04-28T05:35:06.329Z,3.05
2023-04-28T05:37:32.954Z,3.10
2023-04-28T05:39:59.640Z,2.80
2023-04-28T05:42:26.302Z,3.00
2023-04-28T05:44:52.848Z,3.00
2023-04-28T05:47:19.485Z,2.97
2023-04-28T05:53:41.950Z,2.60
2023-04-28T05:59:49.685Z,2.97
2023-04-28T06:02:16.957Z,3.05
2023-04-28T06:04:44.682Z,3.10
2023-04-28T06:07:11.418Z,3.20
2023-04-28T06:09:38.903Z,3.00
2023-04-28T06:12:06.284Z,3.00
2023-04-28T06:14:33.106Z,3.10
2023-04-28T06:16:59.714Z,3.20
2023-04-28T06:19:26.348Z,3.92
2023-04-28T06:21:53.195Z,3.03
2023-04-28T06:24:19.837Z,3.20
2023-04-28T06:26:46.670Z,3.45
2023-04-28T06:29:13.336Z,3.60
2023-04-28T06:31:40.056Z,3.67
2023-04-28T06:34:07.448Z,3.53
2023-04-28T06:40:24.833Z,3.67
2023-04-28T06:42:51.831Z,3.53
2023-04-28T06:45:18.524Z,4.07
2023-04-28T06:47:45.210Z,3.60
2023-04-28T06:54:31.261Z,3.13
2023-04-28T07:00:48.990Z,3.70
2023-04-28T07:03:15.693Z,3.90
2023-04-28T07:05:42.316Z,3.92
2023-04-28T07:08:08.920Z,4.13
2023-04-28T07:10:35.464Z,4.13
2023-04-28T07:13:02.022Z,4.43
2023-04-28T07:15:28.999Z,4.25
2023-04-28T07:17:55.705Z,4.00
2023-04-28T07:20:22.475Z,4.30
2023-04-28T07:22:49.184Z,4.57
2023-04-28T07:25:16.012Z,4.20
2023-04-28T07:27:42.627Z,4.47
2023-04-28T07:30:25.687Z,4.28
2023-04-28T07:36:45.933Z,3.83
2023-04-28T07:39:12.573Z,4.32
2023-04-28T07:41:39.336Z,4.60
2023-04-28T07:44:08.288Z,4.28
2023-04-28T07:46:35.432Z,4.22
2023-04-28T07:49:03.392Z,4.57
2023-04-28T07:55:48.777Z,4.47
2023-04-28T08:01:56.843Z,5.30
2023-04-28T08:04:23.778Z,4.90
2023-04-28T08:06:50.920Z,5.20
2023-04-28T08:09:17.535Z,5.18
2023-04-28T08:11:44.166Z,4.85
2023-04-28T08:14:10.729Z,4.85
2023-04-28T08:16:40.410Z,4.88
2023-04-28T08:19:07.687Z,4.70
2023-04-28T08:21:34.583Z,5.30
2023-04-28T08:27:42.028Z,5.30
2023-04-28T08:30:09.273Z,5.07
2023-04-28T08:32:36.166Z,5.13
2023-04-28T08:35:03.915Z,4.97
2023-04-28T08:37:31.155Z,5.78
2023-04-28T08:43:08.674Z,4.90
2023-04-28T08:49:17.839Z,4.85
2023-04-28T08:53:02.028Z,5.00
2023-04-28T09:00:01.257Z,4.60
2023-04-28T09:02:28.129Z,5.07
2023-04-28T09:04:55.008Z,4.75
2023-04-28T09:07:22.323Z,4.90
2023-04-28T09:09:48.911Z,5.43
2023-04-28T09:12:16.059Z,4.93
2023-04-28T09:14:42.671Z,4.82
2023-04-28T09:17:13.415Z,4.75
2023-04-28T09:19:42.825Z,5.22
2023-04-28T09:22:24.693Z,5.00
2023-04-28T09:24:56.545Z,5.05
2023-04-28T09:31:05.187Z,4.68
2023-04-28T09:37:24.973Z,4.70
2023-04-28T09:40:12.079Z,4.93
2023-04-28T09:51:06.999Z,4.53
2023-04-28T09:53:35.582Z,4.65
2023-04-28T10:00:05.959Z,4.82
2023-04-28T10:03:08.208Z,5.20
2023-04-28T10:05:36.009Z,4.88
2023-04-28T10:08:03.818Z,5.35
2023-04-28T10:10:30.490Z,5.03
2023-04-28T10:16:48.104Z,4.72
2023-04-28T10:19:14.669Z,5.72
2023-04-28T10:22:00.417Z,4.90
2023-04-28T10:28:18.389Z,5.45
2023-04-28T10:34:30.161Z,5.03
2023-04-28T10:40:42.366Z,5.43
2023-04-28T10:47:04.190Z,5.13
2023-04-28T10:53:21.943Z,6.03
2023-04-28T10:59:39.309Z,6.03
2023-04-28T11:02:43.969Z,6.00
2023-04-28T11:05:28.431Z,5.85
2023-04-28T11:11:36.317Z,6.53
2023-04-28T11:18:52.764Z,6.22
2023-04-28T11:21:22.660Z,6.90
2023-04-28T11:23:50.708Z,7.03
2023-04-28T11:38:04.272Z,7.18
2023-04-28T11:44:23.111Z,9.98
2023-04-28T11:53:07.633Z,6.93
2023-04-28T11:56:13.721Z,7.60
2023-04-28T12:02:30.876Z,7.15
2023-04-28T12:05:53.383Z,6.72
2023-04-28T12:12:12.992Z,9.30
2023-04-28T12:18:19.520Z,9.02
2023-04-28T12:20:46.193Z,8.45
2023-04-28T12:23:12.904Z,9.57
2023-04-28T12:25:47.305Z,10.70
2023-04-28T12:28:14.003Z,10.48
2023-04-28T12:30:43.758Z,12.18
2023-04-28T12:33:27.940Z,12.20
2023-04-28T12:35:56.581Z,12.40
2023-04-28T12:38:27.229Z,12.02
2023-04-28T12:40:54.189Z,13.07
2023-04-28T12:43:23.410Z,13.05
2023-04-28T12:45:55.306Z,13.63
2023-04-28T12:48:24.004Z,14.15
2023-04-28T12:50:50.641Z,14.05
2023-04-28T12:53:17.262Z,13.90
2023-04-28T13:03:23.368Z,15.50
2023-04-28T13:05:51.616Z,14.65
2023-04-28T13:12:09.138Z,14.70
2023-04-28T13:14:35.904Z,14.40
2023-04-28T13:17:03.439Z,14.00
2023-04-28T13:19:31.532Z,14.80
2023-04-28T13:21:58.270Z,14.02
2023-04-28T16:55:10.981Z,2.38
2023-04-28T16:57:37.561Z,3.15
2023-04-28T17:00:41.938Z,3.28
2023-04-28T17:06:50.508Z,3.40
2023-04-28T17:09:17.841Z,3.08
2023-04-28T17:11:44.679Z,2.95
2023-04-28T17:14:11.279Z,3.08
2023-04-28T17:16:37.855Z,3.47
2023-04-28T17:19:05.333Z,4.28
2023-04-28T17:21:33.766Z,4.05
2023-04-28T17:24:00.759Z,4.20
2023-04-28T17:26:29.650Z,4.85
2023-04-28T17:28:57.124Z,6.10
2023-04-28T17:31:24.008Z,6.00
2023-04-28T20:38:29.690Z,6.97
2023-04-28T20:40:58.961Z,7.18
2023-04-28T20:43:44.332Z,7.50
2023-04-28T20:46:13.732Z,7.57
2023-04-28T20:48:41.609Z,8.15
2023-04-28T20:51:08.249Z,9.02
2023-04-28T20:53:34.832Z,8.90
2023-04-28T20:56:01.513Z,9.85
2023-04-28T20:58:32.019Z,8.32
2023-04-28T21:00:59.170Z,9.35
2023-04-28T21:03:26.772Z,9.98
2023-04-28T21:05:53.382Z,10.70
2023-04-28T21:08:22.024Z,9.25
2023-04-28T21:10:48.734Z,10.35
2023-04-28T21:13:15.269Z,10.80
2023-04-28T21:15:42.108Z,11.00
2023-04-28T21:18:27.418Z,10.45
2023-04-28T21:20:54.787Z,13.50
2023-04-28T21:23:23.059Z,12.93
2023-04-28T21:25:49.710Z,15.23
2023-04-28T21:28:17.618Z,13.90
2023-04-28T21:30:44.266Z,15.50
2023-04-28T21:33:11.767Z,16.73
2023-04-28T21:35:38.598Z,15.73
2023-04-28T21:38:26.827Z,16.40
2023-04-28T21:40:54.944Z,17.42
2023-04-28T21:43:22.453Z,17.67
2023-04-28T21:45:50.638Z,17.00
2023-04-28T21:48:17.626Z,15.48
2023-04-28T21:50:45.458Z,18.70
2023-04-28T21:53:12.066Z,18.77
2023-04-28T21:55:39.983Z,18.52
2023-04-28T21:58:06.602Z,20.13
2023-04-28T22:00:39.796Z,19.17
2023-04-28T22:03:07.071Z,19.90
2023-04-28T22:05:35.585Z,21.80
2023-04-28T22:08:02.281Z,19.60
2023-04-28T22:10:47.804Z,20.08
2023-04-28T22:13:14.573Z,22.55
2023-04-28T22:16:00.229Z,24.75
2023-04-28T22:18:27.731Z,23.90
2023-04-28T22:20:56.153Z,20.58
2023-04-28T22:23:23.262Z,21.02
2023-04-28T22:25:50.120Z,22.25
2023-04-28T22:28:16.918Z,19.27
2023-04-28T22:30:46.076Z,19.65
2023-04-28T22:33:12.748Z,21.58
2023-04-28T22:35:40.683Z,21.85
2023-04-28T22:38:08.088Z,18.95
2023-04-28T22:40:34.847Z,19.15
2023-04-28T22:43:03.227Z,20.17
2023-04-28T22:45:29.802Z,18.65
2023-04-28T22:48:16.984Z,17.98
2023-04-28T22:53:10.367Z,17.38
2023-04-28T22:55:37.525Z,15.40
2023-04-28T22:58:04.145Z,16.33
2023-04-28T23:00:31.947Z,15.15
2023-04-28T23:02:58.879Z,16.02
2023-04-28T23:05:31.674Z,14.23
2023-04-28T23:07:59.562Z,14.45
2023-04-28T23:10:26.299Z,15.77
2023-04-28T23:12:54.641Z,13.32
2023-04-28T23:15:21.244Z,15.18
2023-04-28T23:17:48.138Z,13.68
2023-04-28T23:20:15.048Z,15.25
2023-04-28T23:22:41.889Z,15.80
2023-04-28T23:25:09.457Z,14.55
2023-04-28T23:27:54.938Z,15.63
2023-04-28T23:30:22.648Z,14.77
2023-04-28T23:33:11.047Z,14.55
2023-04-28T23:35:37.998Z,14.68
2023-04-28T23:38:04.548Z,12.98
2023-04-28T23:40:31.136Z,13.82
2023-04-28T23:43:02.699Z,13.63
2023-04-28T23:45:29.272Z,15.50
2023-04-28T23:47:56.467Z,14.50
2023-04-28T23:50:23.944Z,14.68
2023-04-28T23:52:50.516Z,13.82
2023-04-28T23:55:18.496Z,12.80
2023-04-28T23:57:45.117Z,13.65
